Terminal Aerodrome Forecast
Issued by NWS Mt. Holly, NJ

Home | Current Version | Previous Version | Text Only | Print | Product List | Glossary On
Versions: 1 2 3 4 5 6 7 8 9 10 11 12 13 14 15 16 17 18 19 20 21 22 23 24 25
024
FTUS41 KPHI 061123
TAFABE
TAF
KABE 061123Z 0612/0712 06006KT 6SM -RA BR OVC028
      TEMPO 0612/0616 4SM RA BR OVC012
     FM061600 05010KT 6SM -RA BR OVC012
      TEMPO 0616/0620 3SM RA BR BKN009
     FM070000 05006KT 5SM BR VCSH OVC009=

USA.gov is the U.S. government's official web portal to all federal, state and local government web resources and services.